Time;durP1;ratioP1;P1;durP2;ratioP2;P2;SDS_P1;SDS_P2;PMS_P1;PMS_P2;Temp;Humidity;BMP_temperature;BMP_pressure;BME280_temperature;BME280_humidity;BME280_pressure;Samples;Min_cycle;Max_cycle;Signal;HPM_P1;HPM_P2
2023/07/17 00:01:35;;;;;;;6.50;1.90;;;16.80;99.90;;;;;;5122414;27;20035;-64
2023/07/17 00:04:01;;;;;;;5.70;2.25;;;16.80;99.90;;;;;;5134213;27;20038;-64
2023/07/17 00:06:26;;;;;;;5.97;2.22;;;16.70;99.90;;;;;;5129862;27;20042;-64
2023/07/17 00:08:52;;;;;;;6.50;2.15;;;16.80;99.90;;;;;;5136161;27;20698;-64
2023/07/17 00:11:18;;;;;;;5.50;1.98;;;16.70;99.90;;;;;;5133324;27;20035;-63
2023/07/17 00:13:43;;;;;;;5.85;2.20;;;16.80;99.90;;;;;;5113807;27;20031;-63
2023/07/17 00:16:09;;;;;;;4.85;2.38;;;16.70;99.90;;;;;;5116061;27;20067;-64
2023/07/17 00:18:35;;;;;;;6.75;2.40;;;16.80;99.90;;;;;;5107100;27;20130;-64
2023/07/17 00:21:01;;;;;;;8.18;2.10;;;16.70;99.90;;;;;;5130199;27;20560;-63
2023/07/17 00:23:27;;;;;;;6.97;2.83;;;16.70;99.90;;;;;;5119631;27;20082;-64
2023/07/17 00:25:53;;;;;;;9.02;2.45;;;16.60;99.90;;;;;;5149229;27;20045;-63
2023/07/17 00:28:18;;;;;;;7.93;2.50;;;16.50;99.90;;;;;;5116415;27;20068;-64
2023/07/17 00:30:45;;;;;;;9.50;2.63;;;16.50;99.90;;;;;;5133839;27;20041;-64
2023/07/17 00:33:11;;;;;;;8.50;2.40;;;16.40;99.90;;;;;;5098542;27;20091;-64
2023/07/17 00:35:37;;;;;;;10.20;2.63;;;16.30;99.90;;;;;;5117835;27;20043;-64
2023/07/17 00:38:03;;;;;;;10.13;2.13;;;16.20;99.90;;;;;;5113037;27;20447;-63
2023/07/17 00:40:29;;;;;;;8.18;2.42;;;16.10;99.90;;;;;;5117773;27;20123;-65
2023/07/17 00:42:59;;;;;;;8.75;2.08;;;16.10;99.90;;;;;;5120732;27;20122;-63
2023/07/17 00:45:26;;;;;;;11.20;2.85;;;16.10;99.90;;;;;;5130932;27;20045;-63
2023/07/17 00:47:52;;;;;;;7.50;2.20;;;16.00;99.90;;;;;;5133928;27;20496;-64
2023/07/17 00:50:18;;;;;;;6.10;2.20;;;16.00;99.90;;;;;;5134910;27;20052;-64
2023/07/17 00:52:44;;;;;;;9.90;2.15;;;16.00;99.90;;;;;;5112856;27;20376;-64
2023/07/17 00:55:12;;;;;;;7.40;2.22;;;16.00;99.90;;;;;;5114205;27;20043;-64
2023/07/17 00:57:39;;;;;;;5.40;1.80;;;16.00;99.90;;;;;;5123434;27;20423;-64
2023/07/17 01:00:08;;;;;;;8.18;2.30;;;16.00;99.90;;;;;;5138295;27;20081;-64
2023/07/17 01:02:36;;;;;;;6.38;1.83;;;16.00;99.90;;;;;;5114340;27;20066;-63
2023/07/17 01:05:02;;;;;;;3.33;1.73;;;16.00;99.90;;;;;;5116564;27;20491;-65
2023/07/17 01:07:27;;;;;;;6.07;1.80;;;16.00;99.90;;;;;;5131978;27;20114;-64
2023/07/17 01:09:53;;;;;;;5.45;1.92;;;15.90;99.90;;;;;;5130323;27;20046;-64
2023/07/17 01:12:19;;;;;;;4.95;1.67;;;15.90;99.90;;;;;;5121827;28;20046;-64
2023/07/17 01:14:44;;;;;;;5.38;1.90;;;15.90;99.90;;;;;;5114898;28;20039;-63
2023/07/17 01:17:10;;;;;;;4.05;1.80;;;15.80;99.90;;;;;;5115056;27;20082;-64
2023/07/17 01:19:36;;;;;;;5.22;2.15;;;15.80;99.90;;;;;;5116739;27;20039;-64
2023/07/17 01:22:11;;;;;;;6.00;1.90;;;15.80;99.90;;;;;;5115208;27;20058;-65
2023/07/17 01:24:36;;;;;;;4.95;1.80;;;15.80;99.90;;;;;;5120765;28;20050;-64
2023/07/17 01:27:02;;;;;;;4.93;1.75;;;15.70;99.90;;;;;;5125155;27;20401;-65
2023/07/17 01:29:28;;;;;;;5.50;1.58;;;15.70;99.90;;;;;;5131348;27;20057;-64
2023/07/17 01:31:53;;;;;;;4.28;1.90;;;15.80;99.90;;;;;;5113001;27;20031;-63
2023/07/17 01:34:19;;;;;;;5.70;1.90;;;15.70;99.90;;;;;;5120431;28;20184;-63
2023/07/17 01:36:45;;;;;;;3.38;1.45;;;15.70;99.90;;;;;;5129048;27;20038;-64
2023/07/17 01:39:10;;;;;;;5.97;1.90;;;15.70;99.90;;;;;;5132797;27;20038;-64
2023/07/17 01:41:36;;;;;;;8.02;1.70;;;15.70;99.90;;;;;;5141047;27;20444;-64
2023/07/17 01:44:02;;;;;;;6.35;2.10;;;15.70;99.90;;;;;;5119658;27;20122;-64
2023/07/17 01:46:27;;;;;;;5.40;1.60;;;15.70;99.90;;;;;;5094946;27;20135;-64
2023/07/17 01:48:54;;;;;;;4.68;1.70;;;15.70;99.90;;;;;;5121120;27;20125;-63
2023/07/17 01:51:19;;;;;;;5.13;1.80;;;15.70;99.90;;;;;;5130037;27;20050;-64
2023/07/17 01:53:45;;;;;;;3.88;1.83;;;15.60;99.90;;;;;;5126341;27;20053;-64
2023/07/17 01:56:10;;;;;;;6.25;1.70;;;15.60;99.90;;;;;;5132668;27;20034;-65
2023/07/17 01:58:36;;;;;;;5.85;2.10;;;15.60;99.90;;;;;;5113734;27;20071;-64
2023/07/17 02:01:03;;;;;;;4.97;1.70;;;15.60;99.90;;;;;;5118694;27;20123;-63
2023/07/17 02:03:28;;;;;;;4.28;2.00;;;15.60;99.90;;;;;;5114237;27;20069;-64
2023/07/17 02:05:54;;;;;;;6.32;1.52;;;15.60;99.90;;;;;;5129638;27;20046;-64
2023/07/17 02:08:20;;;;;;;4.40;1.52;;;15.50;99.90;;;;;;5131212;27;20550;-64
2023/07/17 02:10:49;;;;;;;2.75;1.50;;;15.50;99.90;;;;;;5132629;27;20114;-63
2023/07/17 02:13:14;;;;;;;6.50;1.90;;;15.50;99.90;;;;;;5136039;27;20087;-64
2023/07/17 02:15:40;;;;;;;4.05;1.60;;;15.50;99.90;;;;;;5123654;27;20038;-64
2023/07/17 02:18:07;;;;;;;5.57;2.20;;;15.50;99.90;;;;;;5121862;28;20031;-64
2023/07/17 02:20:32;;;;;;;4.68;2.00;;;15.40;99.90;;;;;;5116541;27;20046;-65
2023/07/17 02:22:58;;;;;;;6.82;2.25;;;15.40;99.90;;;;;;5130868;27;20050;-63
2023/07/17 02:25:23;;;;;;;6.15;2.25;;;15.40;99.90;;;;;;5117567;27;20044;-64
2023/07/17 02:27:49;;;;;;;5.90;1.88;;;15.40;99.90;;;;;;5131676;27;20055;-64
2023/07/17 02:30:15;;;;;;;5.90;1.73;;;15.40;99.90;;;;;;5135312;27;20055;-64
2023/07/17 02:32:40;;;;;;;5.28;1.88;;;15.40;99.90;;;;;;5116060;27;20051;-64
2023/07/17 02:35:07;;;;;;;8.20;2.30;;;15.40;99.90;;;;;;5120775;27;20043;-63
2023/07/17 02:37:32;;;;;;;9.68;2.10;;;15.30;99.90;;;;;;5123301;27;20043;-65
2023/07/17 02:39:58;;;;;;;5.55;2.20;;;15.30;99.90;;;;;;5134592;27;20409;-64
2023/07/17 02:42:23;;;;;;;9.27;1.95;;;15.40;99.90;;;;;;5136139;27;20045;-64
2023/07/17 02:44:49;;;;;;;7.05;2.00;;;15.40;99.90;;;;;;5139743;27;20035;-63
2023/07/17 02:47:15;;;;;;;6.32;2.95;;;15.30;99.90;;;;;;5142134;27;20589;-64
2023/07/17 02:49:41;;;;;;;6.03;2.20;;;15.30;99.90;;;;;;5134826;27;20247;-63
2023/07/17 02:52:08;;;;;;;7.65;2.30;;;15.30;99.90;;;;;;5122584;27;20100;-64
2023/07/17 02:54:38;;;;;;;8.52;2.20;;;15.30;99.90;;;;;;5135235;27;20034;-65
2023/07/17 02:57:05;;;;;;;8.93;2.72;;;15.30;99.90;;;;;;5120109;27;20038;-65
2023/07/17 02:59:30;;;;;;;7.32;2.55;;;15.40;99.90;;;;;;5130550;27;20161;-64
2023/07/17 03:01:56;;;;;;;7.18;2.15;;;15.30;99.90;;;;;;5114844;27;20831;-65
2023/07/17 03:04:22;;;;;;;9.93;2.20;;;15.30;99.90;;;;;;5127227;27;20479;-64
2023/07/17 03:06:48;;;;;;;7.10;2.20;;;15.30;99.90;;;;;;5134037;27;20042;-63
2023/07/17 03:09:14;;;;;;;12.02;2.58;;;15.30;99.90;;;;;;5149650;27;20046;-64
2023/07/17 03:11:39;;;;;;;8.70;2.42;;;15.30;99.90;;;;;;5127538;27;20031;-64
2023/07/17 03:14:05;;;;;;;9.30;2.65;;;15.30;99.90;;;;;;5122199;27;20053;-64
2023/07/17 03:16:31;;;;;;;9.80;2.53;;;15.30;99.90;;;;;;5123145;27;20395;-63
2023/07/17 03:18:57;;;;;;;11.20;2.78;;;15.30;99.90;;;;;;5123880;27;20051;-64
2023/07/17 03:21:22;;;;;;;10.05;2.50;;;15.30;99.90;;;;;;5115090;27;20047;-64
2023/07/17 03:23:48;;;;;;;9.43;3.08;;;15.30;99.90;;;;;;5132490;27;20049;-64
2023/07/17 03:26:14;;;;;;;9.23;2.58;;;15.30;99.90;;;;;;5123777;27;20039;-65
2023/07/17 03:28:40;;;;;;;10.77;2.70;;;15.30;99.90;;;;;;5135437;27;20058;-65
2023/07/17 03:31:07;;;;;;;7.70;2.53;;;15.20;99.90;;;;;;5118208;27;20465;-64
2023/07/17 03:33:33;;;;;;;9.88;2.45;;;15.20;99.90;;;;;;5125305;27;20042;-64
2023/07/17 03:35:58;;;;;;;12.80;2.50;;;15.20;99.90;;;;;;5121691;27;20083;-64
2023/07/17 03:38:24;;;;;;;6.43;2.00;;;15.20;99.90;;;;;;5132647;27;20439;-64
2023/07/17 03:40:50;;;;;;;10.02;3.08;;;15.20;99.90;;;;;;5129818;27;20531;-63
2023/07/17 03:43:15;;;;;;;7.65;3.05;;;15.20;99.90;;;;;;5134244;27;20038;-63
2023/07/17 03:45:41;;;;;;;9.32;2.65;;;15.10;99.90;;;;;;5117518;27;20066;-64
2023/07/17 03:48:07;;;;;;;9.10;2.60;;;15.20;99.90;;;;;;5142182;27;20585;-64
2023/07/17 03:50:32;;;;;;;9.13;2.03;;;15.10;99.90;;;;;;5143887;27;20079;-63
2023/07/17 03:52:58;;;;;;;5.78;2.20;;;15.10;99.90;;;;;;5123665;27;20485;-64
2023/07/17 03:55:24;;;;;;;6.90;2.30;;;15.20;99.90;;;;;;5101517;27;20050;-64
2023/07/17 03:57:49;;;;;;;6.18;2.28;;;15.10;99.90;;;;;;5127307;27;20587;-63
2023/07/17 04:00:15;;;;;;;10.95;2.88;;;15.10;99.90;;;;;;5151660;27;20050;-63
2023/07/17 04:02:42;;;;;;;6.38;2.28;;;15.10;99.90;;;;;;5115113;27;20038;-63
2023/07/17 04:05:08;;;;;;;8.23;2.65;;;15.10;99.90;;;;;;5116755;27;20046;-64
2023/07/17 04:07:34;;;;;;;7.00;2.15;;;15.10;99.90;;;;;;5131598;27;20038;-64
2023/07/17 04:09:59;;;;;;;9.55;2.50;;;15.10;99.90;;;;;;5134154;27;20043;-63
2023/07/17 04:12:25;;;;;;;5.80;2.05;;;15.10;99.90;;;;;;5126248;27;20110;-64
2023/07/17 04:14:50;;;;;;;10.18;3.00;;;15.10;99.90;;;;;;5113487;27;20043;-64
2023/07/17 04:17:16;;;;;;;7.60;2.55;;;15.10;99.90;;;;;;5121358;27;20054;-64
2023/07/17 04:19:42;;;;;;;11.05;3.33;;;15.10;99.90;;;;;;5120029;27;20130;-64
2023/07/17 04:22:07;;;;;;;11.32;2.50;;;15.20;99.90;;;;;;5118843;27;20038;-64
2023/07/17 04:24:34;;;;;;;8.55;2.50;;;15.20;99.90;;;;;;5131439;27;20087;-63
2023/07/17 04:27:00;;;;;;;9.73;2.50;;;15.20;99.90;;;;;;5142117;27;20114;-63
2023/07/17 04:29:25;;;;;;;13.57;2.53;;;15.30;99.90;;;;;;5127172;27;20113;-64
2023/07/17 04:31:51;;;;;;;8.93;2.45;;;15.30;99.90;;;;;;5121855;27;20047;-64
2023/07/17 04:34:18;;;;;;;10.18;2.30;;;15.30;99.90;;;;;;5119477;27;20535;-64
2023/07/17 04:36:44;;;;;;;7.82;2.20;;;15.40;99.90;;;;;;5118420;27;20066;-64
2023/07/17 04:39:09;;;;;;;11.20;2.95;;;15.40;99.90;;;;;;5120411;27;20093;-64
2023/07/17 04:41:35;;;;;;;7.30;2.63;;;15.50;99.90;;;;;;5114824;27;20126;-64
2023/07/17 04:44:01;;;;;;;6.57;2.40;;;15.50;99.90;;;;;;5116444;27;20125;-64
2023/07/17 04:46:26;;;;;;;8.32;2.67;;;15.50;99.90;;;;;;5133039;27;20050;-64
2023/07/17 04:48:52;;;;;;;7.95;2.33;;;15.60;99.90;;;;;;5129810;27;20084;-65
2023/07/17 04:51:18;;;;;;;6.90;2.22;;;15.60;99.90;;;;;;5125882;27;20071;-64
2023/07/17 04:53:43;;;;;;;10.95;2.72;;;15.60;99.90;;;;;;5122727;27;20496;-64
2023/07/17 04:56:09;;;;;;;8.98;2.85;;;15.70;99.90;;;;;;5130898;27;20027;-64
2023/07/17 04:58:35;;;;;;;7.30;2.38;;;15.70;99.90;;;;;;5128862;27;20046;-64
2023/07/17 05:01:01;;;;;;;7.10;2.65;;;15.70;99.90;;;;;;5127658;27;20094;-64
2023/07/17 05:03:27;;;;;;;6.28;2.38;;;15.80;99.90;;;;;;5133302;27;20056;-63
2023/07/17 05:05:54;;;;;;;7.10;2.40;;;15.80;99.90;;;;;;5132561;27;20128;-64
2023/07/17 05:08:20;;;;;;;10.10;2.65;;;15.90;99.90;;;;;;5123993;27;20046;-64
2023/07/17 05:10:53;;;;;;;8.70;3.05;;;16.00;99.90;;;;;;5121588;27;20035;-64
2023/07/17 05:13:19;;;;;;;7.78;2.45;;;16.00;99.90;;;;;;5101026;27;20054;-62
2023/07/17 05:15:44;;;;;;;6.50;2.28;;;16.10;99.90;;;;;;5140005;27;20035;-63
2023/07/17 05:18:10;;;;;;;9.25;2.55;;;16.10;99.90;;;;;;5115318;27;20054;-64
2023/07/17 05:20:36;;;;;;;6.97;3.28;;;16.10;99.90;;;;;;5128149;27;20050;-63
2023/07/17 05:23:01;;;;;;;8.55;2.60;;;16.20;99.90;;;;;;5133330;27;20429;-63
2023/07/17 05:25:27;;;;;;;9.52;2.90;;;16.30;99.90;;;;;;5114721;27;20039;-63
2023/07/17 05:27:53;;;;;;;8.52;3.22;;;16.30;99.90;;;;;;5130996;27;20046;-63
2023/07/17 05:30:18;;;;;;;7.70;3.00;;;16.30;99.90;;;;;;5113707;27;20072;-64
2023/07/17 05:32:44;;;;;;;7.43;3.25;;;16.40;99.90;;;;;;5128155;27;20129;-64
2023/07/17 05:35:09;;;;;;;7.20;2.50;;;16.50;99.90;;;;;;5125656;27;20043;-64
2023/07/17 05:37:35;;;;;;;6.93;2.42;;;16.60;99.90;;;;;;5132947;27;20038;-65
2023/07/17 05:40:01;;;;;;;10.93;3.17;;;16.70;99.90;;;;;;5120184;27;20170;-64
2023/07/17 05:42:26;;;;;;;9.20;2.72;;;16.80;99.90;;;;;;5111502;27;20047;-63
2023/07/17 05:44:52;;;;;;;9.55;3.05;;;16.80;99.90;;;;;;5118842;27;20449;-64
2023/07/17 05:47:17;;;;;;;11.38;2.90;;;16.90;99.90;;;;;;5147729;27;20485;-63
2023/07/17 05:49:43;;;;;;;8.68;3.65;;;16.90;99.90;;;;;;5151138;27;20047;-65
2023/07/17 05:52:09;;;;;;;8.00;3.00;;;17.00;99.90;;;;;;5132671;27;20070;-64
2023/07/17 05:54:36;;;;;;;9.90;3.42;;;17.00;99.90;;;;;;5133413;27;20039;-63
2023/07/17 05:57:01;;;;;;;9.70;3.10;;;17.10;99.90;;;;;;5149821;27;20041;-63
2023/07/17 05:59:27;;;;;;;9.35;3.55;;;17.10;99.90;;;;;;5125619;27;20428;-63
2023/07/17 06:01:53;;;;;;;10.07;3.40;;;17.10;99.90;;;;;;5130584;27;20035;-64
2023/07/17 06:04:18;;;;;;;9.30;3.45;;;17.10;99.90;;;;;;5116410;27;20494;-64
2023/07/17 06:06:44;;;;;;;8.52;3.33;;;17.10;99.90;;;;;;5101574;27;20051;-63
2023/07/17 06:09:10;;;;;;;10.23;3.40;;;17.00;99.90;;;;;;5124869;27;20549;-64
2023/07/17 06:11:36;;;;;;;13.00;4.13;;;17.20;99.90;;;;;;5135774;27;20087;-63
2023/07/17 06:14:02;;;;;;;11.63;4.28;;;17.20;99.90;;;;;;5132830;27;20040;-63
2023/07/17 06:16:28;;;;;;;13.32;3.92;;;17.20;99.90;;;;;;5129160;27;20103;-64
2023/07/17 06:18:53;;;;;;;10.27;4.03;;;17.20;99.90;;;;;;5128305;27;20566;-64
2023/07/17 06:21:19;;;;;;;13.55;4.13;;;17.10;99.90;;;;;;5115494;27;20517;-64
2023/07/17 06:23:44;;;;;;;13.48;3.95;;;17.00;99.90;;;;;;5150762;27;20136;-64
2023/07/17 06:26:10;;;;;;;10.55;4.32;;;16.90;99.90;;;;;;5134389;27;20082;-64
2023/07/17 06:28:36;;;;;;;11.85;4.13;;;16.80;99.90;;;;;;5134118;27;20603;-64
2023/07/17 06:31:01;;;;;;;10.02;4.28;;;16.90;99.90;;;;;;5119201;27;20058;-65
2023/07/17 06:33:27;;;;;;;9.10;4.10;;;17.00;99.90;;;;;;5116891;27;20112;-64
2023/07/17 06:35:53;;;;;;;12.57;4.30;;;17.20;99.90;;;;;;5135914;27;20504;-64
2023/07/17 06:38:18;;;;;;;12.90;4.55;;;17.30;99.90;;;;;;5124275;27;20050;-65
2023/07/17 06:40:44;;;;;;;9.68;3.92;;;17.40;99.90;;;;;;5099330;27;20051;-64
2023/07/17 06:43:09;;;;;;;9.88;4.15;;;17.60;99.90;;;;;;5135178;27;20042;-64
2023/07/17 06:45:35;;;;;;;10.68;4.18;;;17.70;99.90;;;;;;5135385;27;20042;-65
2023/07/17 06:48:01;;;;;;;13.68;4.53;;;17.70;99.90;;;;;;5122752;27;20417;-66
2023/07/17 06:50:26;;;;;;;15.57;4.80;;;17.90;99.90;;;;;;5113765;27;20557;-65
2023/07/17 06:52:52;;;;;;;14.32;4.68;;;17.80;99.90;;;;;;5119941;27;20541;-65
2023/07/17 06:55:19;;;;;;;11.30;4.80;;;17.80;99.90;;;;;;5125862;27;20030;-65
2023/07/17 06:57:45;;;;;;;11.50;4.75;;;17.80;99.90;;;;;;5119264;27;20051;-64
2023/07/17 07:00:11;;;;;;;10.95;4.80;;;17.90;99.90;;;;;;5119455;27;20074;-65
2023/07/17 07:02:37;;;;;;;11.70;4.85;;;17.90;99.90;;;;;;5119728;27;20043;-64
2023/07/17 07:05:03;;;;;;;12.65;4.72;;;18.00;99.90;;;;;;5134791;27;20039;-65
2023/07/17 07:07:28;;;;;;;15.77;5.28;;;17.80;99.90;;;;;;5134546;27;20073;-64
2023/07/17 07:09:54;;;;;;;13.43;5.20;;;17.90;99.90;;;;;;5131205;27;20034;-65
2023/07/17 07:12:20;;;;;;;11.60;4.95;;;17.80;99.90;;;;;;5126426;27;20076;-65
2023/07/17 07:14:46;;;;;;;14.02;5.50;;;17.90;99.90;;;;;;5102028;27;20055;-65
2023/07/17 07:17:12;;;;;;;11.20;4.57;;;18.10;99.90;;;;;;5129119;27;20049;-64
2023/07/17 07:19:38;;;;;;;12.50;5.00;;;18.30;99.90;;;;;;5126601;27;20039;-64
2023/07/17 07:22:03;;;;;;;10.40;4.55;;;18.40;99.90;;;;;;5116758;27;20042;-64
2023/07/17 07:24:29;;;;;;;13.00;5.00;;;18.40;99.90;;;;;;5114083;27;20083;-64
2023/07/17 07:26:55;;;;;;;9.90;4.43;;;18.60;99.90;;;;;;5114145;27;20446;-64
2023/07/17 07:29:20;;;;;;;14.43;5.22;;;18.70;99.90;;;;;;5124596;27;20430;-64
2023/07/17 07:31:46;;;;;;;10.45;4.90;;;18.80;99.90;;;;;;5139073;27;20119;-65
2023/07/17 07:34:12;;;;;;;9.65;4.80;;;18.80;99.90;;;;;;5116968;27;20041;-64
2023/07/17 07:36:37;;;;;;;12.80;4.63;;;19.00;99.90;;;;;;5132512;27;20057;-64
2023/07/17 07:39:05;;;;;;;9.98;4.32;;;18.90;99.90;;;;;;5126706;27;20043;-65
2023/07/17 07:41:32;;;;;;;9.18;4.53;;;18.90;99.90;;;;;;5128330;27;20125;-65
2023/07/17 07:43:58;;;;;;;13.70;4.88;;;18.80;99.90;;;;;;5120752;27;20039;-65
2023/07/17 07:46:24;;;;;;;10.68;4.53;;;18.80;99.90;;;;;;5123165;27;20401;-64
2023/07/17 07:48:50;;;;;;;8.20;4.72;;;18.80;99.90;;;;;;5131968;27;20135;-64
2023/07/17 07:51:15;;;;;;;13.30;5.07;;;18.80;99.90;;;;;;5133087;27;20450;-64
2023/07/17 07:53:41;;;;;;;11.25;4.70;;;18.80;99.90;;;;;;5115320;27;20035;-65
2023/07/17 07:56:06;;;;;;;11.25;4.88;;;18.90;99.90;;;;;;5112813;27;20062;-65
2023/07/17 07:58:32;;;;;;;10.75;4.30;;;18.90;99.90;;;;;;5096101;27;20059;-64
2023/07/17 08:00:58;;;;;;;9.18;3.85;;;19.00;99.90;;;;;;5114131;27;20047;-65
2023/07/17 08:03:23;;;;;;;10.88;4.10;;;19.10;99.90;;;;;;5103911;27;20047;-65
2023/07/17 08:05:49;;;;;;;10.13;4.00;;;19.20;99.90;;;;;;5137313;27;20110;-65
2023/07/17 08:08:15;;;;;;;9.65;4.70;;;19.50;99.90;;;;;;5115280;27;20043;-65
2023/07/17 08:10:40;;;;;;;12.15;4.18;;;19.60;99.90;;;;;;5140642;27;20066;-65
2023/07/17 08:13:06;;;;;;;12.05;5.00;;;19.80;99.90;;;;;;5132004;27;20047;-65
2023/07/17 08:15:32;;;;;;;8.45;3.97;;;20.00;99.90;;;;;;5129683;27;20062;-66
2023/07/17 08:17:58;;;;;;;11.43;4.70;;;20.00;99.90;;;;;;5133584;27;20477;-64
2023/07/17 08:20:23;;;;;;;12.68;5.05;;;20.10;99.90;;;;;;5113642;27;20068;-64
2023/07/17 08:22:54;;;;;;;14.55;5.00;;;20.20;99.90;;;;;;5135021;27;20549;-65
2023/07/17 08:25:23;;;;;;;11.80;5.10;;;20.20;99.90;;;;;;5120446;27;20073;-65
2023/07/17 08:27:49;;;;;;;9.98;4.57;;;20.20;99.90;;;;;;5118916;27;20043;-63
2023/07/17 08:30:15;;;;;;;9.27;4.78;;;20.00;99.90;;;;;;5125522;27;20088;-65
2023/07/17 08:32:41;;;;;;;10.30;4.32;;;19.80;99.90;;;;;;5119557;27;20035;-64
2023/07/17 08:35:07;;;;;;;10.45;4.38;;;19.60;99.90;;;;;;5123608;27;20453;-64
2023/07/17 08:37:33;;;;;;;10.18;4.35;;;19.70;99.90;;;;;;5121299;27;20477;-65
2023/07/17 08:39:59;;;;;;;13.98;5.00;;;19.60;99.90;;;;;;5126842;27;20061;-64
2023/07/17 08:42:25;;;;;;;11.40;4.00;;;19.50;99.90;;;;;;5119117;27;20038;-64
2023/07/17 08:44:52;;;;;;;12.30;4.45;;;19.60;99.90;;;;;;5135396;27;20047;-64
2023/07/17 08:47:20;;;;;;;11.50;4.38;;;19.50;99.90;;;;;;5112491;27;20099;-64
2023/07/17 08:49:48;;;;;;;6.78;3.50;;;19.50;99.90;;;;;;5113922;27;20039;-65
2023/07/17 08:52:15;;;;;;;10.75;3.78;;;19.80;99.90;;;;;;5126920;27;20545;-64
2023/07/17 08:54:41;;;;;;;10.20;3.63;;;20.10;99.90;;;;;;5124078;27;20038;-64
2023/07/17 08:57:08;;;;;;;7.75;3.40;;;20.20;99.90;;;;;;5117925;27;20037;-63
2023/07/17 08:59:34;;;;;;;8.77;3.08;;;20.20;99.90;;;;;;5118070;27;20581;-63
2023/07/17 09:02:02;;;;;;;6.63;3.08;;;20.50;99.90;;;;;;5115873;27;20044;-64
2023/07/17 09:04:30;;;;;;;10.68;3.78;;;20.60;99.90;;;;;;5115738;27;20433;-64
2023/07/17 09:06:56;;;;;;;8.32;2.90;;;20.90;99.90;;;;;;5133002;27;20043;-64
2023/07/17 09:09:22;;;;;;;8.07;3.35;;;21.30;99.90;;;;;;5124167;27;20030;-64
2023/07/17 09:12:06;;;;;;;7.45;3.20;;;21.30;99.90;;;;;;5119618;27;20094;-64
2023/07/17 09:14:32;;;;;;;6.10;3.15;;;20.90;99.90;;;;;;5122201;27;20035;-64
2023/07/17 09:17:03;;;;;;;7.20;2.70;;;20.60;99.90;;;;;;5124597;27;20041;-64
2023/07/17 09:19:31;;;;;;;8.07;2.97;;;20.60;99.90;;;;;;5120944;27;20136;-64
2023/07/17 09:22:02;;;;;;;7.43;2.70;;;20.60;99.90;;;;;;5121641;27;20054;-64
2023/07/17 09:24:28;;;;;;;6.25;2.50;;;20.60;99.60;;;;;;5130045;27;20358;-63
2023/07/17 09:26:57;;;;;;;7.82;2.50;;;20.50;98.20;;;;;;5129242;27;20057;-63
2023/07/17 09:29:24;;;;;;;6.35;2.35;;;20.50;97.70;;;;;;5127125;27;20035;-64
2023/07/17 09:31:50;;;;;;;6.45;2.00;;;20.70;97.90;;;;;;5125085;27;20046;-64
2023/07/17 09:34:16;;;;;;;6.60;2.60;;;20.90;97.70;;;;;;5137080;27;20142;-64
2023/07/17 09:36:42;;;;;;;5.03;1.90;;;21.20;97.10;;;;;;5136887;27;20074;-64
2023/07/17 09:39:10;;;;;;;7.13;2.50;;;21.30;96.80;;;;;;5155390;27;20035;-63
2023/07/17 09:41:35;;;;;;;6.95;2.40;;;21.60;96.70;;;;;;5131628;27;20054;-65
2023/07/17 09:44:05;;;;;;;12.23;2.70;;;21.50;96.20;;;;;;5136436;27;20389;-64
2023/07/17 09:46:33;;;;;;;7.90;2.55;;;21.40;96.00;;;;;;5137045;27;20035;-64
2023/07/17 09:48:59;;;;;;;5.40;2.50;;;21.30;96.80;;;;;;5133334;27;20030;-63
2023/07/17 09:51:25;;;;;;;8.73;2.72;;;21.20;97.40;;;;;;5136194;27;20095;-65
2023/07/17 09:53:51;;;;;;;8.90;3.00;;;21.00;97.50;;;;;;5150037;27;20045;-64
2023/07/17 09:56:20;;;;;;;7.38;2.63;;;20.50;97.40;;;;;;5119321;27;20558;-64
2023/07/17 09:58:47;;;;;;;7.25;2.70;;;20.50;97.80;;;;;;5116522;27;20428;-64
2023/07/17 10:01:17;;;;;;;7.45;2.90;;;20.70;98.50;;;;;;5126324;27;20049;-64
2023/07/17 10:03:49;;;;;;;4.72;2.33;;;21.00;98.60;;;;;;5136651;27;20537;-64
2023/07/17 10:06:17;;;;;;;7.07;2.83;;;21.20;97.90;;;;;;5141252;27;20039;-64
2023/07/17 10:08:49;;;;;;;7.85;2.97;;;21.20;98.20;;;;;;5119085;27;20067;-64
2023/07/17 10:11:16;;;;;;;8.57;3.03;;;21.40;98.00;;;;;;5118851;27;20110;-64
2023/07/17 10:13:47;;;;;;;9.73;2.70;;;21.70;98.00;;;;;;5134457;27;20136;-64
2023/07/17 10:16:16;;;;;;;6.13;2.40;;;22.00;96.80;;;;;;5134536;27;20039;-64
2023/07/17 10:18:49;;;;;;;7.57;2.85;;;22.20;96.50;;;;;;5135362;27;20039;-64
2023/07/17 10:21:18;;;;;;;7.97;2.78;;;22.40;96.60;;;;;;5123988;27;20050;-64
2023/07/17 10:23:45;;;;;;;6.55;2.78;;;22.60;96.00;;;;;;5120243;27;20031;-63
2023/07/17 10:26:14;;;;;;;6.85;2.60;;;22.50;94.90;;;;;;5115364;27;20477;-64
2023/07/17 10:28:41;;;;;;;6.35;2.58;;;22.70;95.70;;;;;;5134752;27;20047;-65
2023/07/17 10:31:18;;;;;;;7.45;3.03;;;22.80;94.20;;;;;;5150562;27;20061;-64
2023/07/17 10:33:52;;;;;;;7.63;2.95;;;22.80;94.10;;;;;;5125014;27;20031;-63
2023/07/17 10:36:35;;;;;;;4.70;2.33;;;22.90;94.50;;;;;;5154496;27;20042;-65
2023/07/17 10:39:05;;;;;;;4.47;2.72;;;22.70;94.40;;;;;;5120723;27;20497;-63
2023/07/17 10:41:30;;;;;;;5.72;2.25;;;22.30;93.50;;;;;;5117236;27;20051;-63
2023/07/17 10:43:57;;;;;;;4.10;2.20;;;22.20;94.10;;;;;;5131761;27;20406;-63
2023/07/17 10:46:32;;;;;;;6.80;2.13;;;22.10;93.50;;;;;;5125716;27;20054;-64
2023/07/17 10:49:11;;;;;;;5.95;2.08;;;21.90;93.20;;;;;;5123405;27;20031;-64
2023/07/17 10:51:41;;;;;;;4.65;2.30;;;22.00;93.70;;;;;;5140605;27;20039;-64
2023/07/17 10:54:06;;;;;;;3.20;1.83;;;21.80;93.30;;;;;;5128236;27;20030;-65
2023/07/17 10:56:32;;;;;;;4.80;1.77;;;21.30;92.10;;;;;;5114822;27;20080;-63
2023/07/17 10:58:59;;;;;;;7.85;2.17;;;21.30;93.30;;;;;;5133439;27;20043;-64
2023/07/17 11:01:25;;;;;;;6.93;2.25;;;21.50;93.20;;;;;;5128661;27;20122;-65
2023/07/17 11:03:50;;;;;;;5.00;1.92;;;21.80;93.20;;;;;;5135712;27;20556;-64
2023/07/17 11:06:18;;;;;;;4.82;1.77;;;22.00;92.60;;;;;;5133379;27;20050;-64
2023/07/17 11:08:50;;;;;;;5.90;2.40;;;22.20;93.60;;;;;;5117731;27;20047;-64
2023/07/17 11:11:17;;;;;;;7.25;2.40;;;22.20;93.10;;;;;;5126441;27;20047;-63
2023/07/17 11:13:44;;;;;;;4.75;2.40;;;21.90;93.50;;;;;;5115357;27;20035;-63
2023/07/17 11:16:11;;;;;;;4.75;2.30;;;21.80;93.50;;;;;;5121520;27;20070;-65
2023/07/17 11:18:50;;;;;;;5.85;2.30;;;21.60;94.30;;;;;;5132956;27;20042;-64
2023/07/17 11:21:18;;;;;;;4.97;1.95;;;21.40;94.10;;;;;;5137970;27;20038;-64
2023/07/17 11:23:49;;;;;;;6.60;2.25;;;21.30;94.00;;;;;;5140387;27;20133;-64
2023/07/17 11:26:18;;;;;;;5.72;1.90;;;21.50;93.70;;;;;;5118565;27;20051;-64
2023/07/17 11:28:46;;;;;;;6.90;1.98;;;21.50;94.10;;;;;;5132758;27;20031;-63
2023/07/17 11:31:39;;;;;;;4.82;1.98;;;21.40;93.10;;;;;;5114795;27;20549;-64
2023/07/17 11:34:10;;;;;;;5.40;2.17;;;21.60;93.30;;;;;;5124746;27;20393;-63
2023/07/17 11:36:44;;;;;;;5.32;1.80;;;21.60;93.80;;;;;;5151573;27;20046;-64
2023/07/17 11:39:17;;;;;;;6.72;2.20;;;21.70;92.90;;;;;;5128912;27;20110;-64
2023/07/17 11:41:46;;;;;;;7.00;1.73;;;21.80;93.20;;;;;;5133297;27;20106;-64
2023/07/17 11:44:14;;;;;;;5.60;1.70;;;22.10;93.10;;;;;;5131487;27;20126;-64
2023/07/17 11:46:41;;;;;;;5.07;1.80;;;22.20;92.00;;;;;;5119410;27;20035;-64
2023/07/17 11:49:06;;;;;;;2.97;1.52;;;22.30;92.20;;;;;;5132183;27;20037;-65
2023/07/17 11:51:32;;;;;;;3.58;1.60;;;22.20;91.90;;;;;;5120514;27;20039;-63
2023/07/17 11:53:58;;;;;;;5.53;1.70;;;21.90;91.10;;;;;;5120712;27;20098;-64
2023/07/17 11:56:34;;;;;;;4.43;1.30;;;21.90;91.40;;;;;;5127961;27;20043;-64
2023/07/17 11:59:00;;;;;;;3.70;1.42;;;21.90;91.20;;;;;;5120614;27;20055;-64
2023/07/17 12:01:26;;;;;;;6.20;1.70;;;21.70;91.80;;;;;;5128567;27;20078;-64
2023/07/17 12:03:51;;;;;;;4.03;1.63;;;21.70;92.50;;;;;;5117715;27;20035;-64
2023/07/17 12:06:17;;;;;;;2.97;1.42;;;21.40;92.50;;;;;;5133077;27;20043;-65
2023/07/17 12:08:44;;;;;;;5.10;1.50;;;21.20;93.00;;;;;;5134202;27;20041;-64
2023/07/17 12:11:10;;;;;;;3.45;1.40;;;21.10;93.50;;;;;;5113329;27;20043;-63
2023/07/17 12:13:35;;;;;;;6.43;2.00;;;20.90;94.00;;;;;;5139613;27;20035;-64
2023/07/17 12:16:01;;;;;;;3.30;1.70;;;20.80;94.80;;;;;;5128882;27;20044;-64
2023/07/17 12:18:27;;;;;;;5.25;1.90;;;20.70;94.40;;;;;;5118829;27;20499;-64
2023/07/17 12:20:52;;;;;;;4.38;1.60;;;20.70;94.80;;;;;;5117481;27;20043;-64
2023/07/17 12:23:18;;;;;;;4.72;1.98;;;20.70;95.30;;;;;;5139402;27;20031;-64
2023/07/17 12:25:46;;;;;;;6.55;2.00;;;20.50;96.70;;;;;;5103664;27;20438;-64
2023/07/17 12:28:12;;;;;;;5.93;1.92;;;20.40;97.50;;;;;;5133469;27;20049;-63
2023/07/17 12:30:38;;;;;;;4.97;1.88;;;20.50;98.20;;;;;;5121251;27;20039;-64
2023/07/17 12:33:03;;;;;;;7.43;2.10;;;20.40;98.90;;;;;;5116840;27;20043;-64
2023/07/17 12:35:29;;;;;;;4.97;1.98;;;20.40;99.20;;;;;;5132390;27;20551;-64
2023/07/17 12:37:55;;;;;;;3.83;1.88;;;20.20;99.20;;;;;;5134045;27;20481;-63
2023/07/17 12:40:20;;;;;;;5.50;2.10;;;20.10;98.80;;;;;;5117472;27;20043;-64
2023/07/17 12:42:46;;;;;;;3.95;1.60;;;20.00;99.00;;;;;;5118474;27;20061;-64